Graceton, Texas
Current Conditions -  °F | °C
As of 1:55 AM on Tuesday 21 Oct 2014 (Local Time) from KOSA Reporting Station
Overcast Overcast  
Wind Chill: 59°   Ceiling: 500
Heat Index: 59°   Visibility: 0.5mi
Dew Point: 58°   Wind: 0mph
Humidity: 99%   Direction: NA
Pressure: 30.07"   Gusts: NA
Location:  32.7353°N, 94.9492°W
Report Text: KOSA 210655Z AUTO 00000KT 1/2SM VV005 15/15 A3007 RMK AO1 T01480147
Loading
Personal Weather Stations






























Interactive Weather Map
Tropical Storm Tracking
New forecast layout! Learn more

10-Day Weather Forecast

Advertisements
Track Severe Weather on mobile